sensor_id;sensor_type;location;lat;lon;timestamp;P1;durP1;ratioP1;P2;durP2;ratioP2
73120;SDS011;61307;49.628;-1.624;2023-02-22T00:00:33;16.30;;;12.02;;
73120;SDS011;61307;49.628;-1.624;2023-02-22T00:03:08;18.50;;;12.05;;
73120;SDS011;61307;49.628;-1.624;2023-02-22T00:05:36;18.77;;;13.10;;
73120;SDS011;61307;49.628;-1.624;2023-02-22T00:08:06;17.77;;;11.70;;
73120;SDS011;61307;49.628;-1.624;2023-02-22T00:10:35;18.20;;;11.88;;
73120;SDS011;61307;49.628;-1.624;2023-02-22T00:13:04;19.33;;;12.43;;
73120;SDS011;61307;49.628;-1.624;2023-02-22T00:15:34;17.20;;;11.88;;
73120;SDS011;61307;49.628;-1.624;2023-02-22T00:18:02;17.95;;;12.07;;
73120;SDS011;61307;49.628;-1.624;2023-02-22T00:20:31;15.57;;;11.35;;
73120;SDS011;61307;49.628;-1.624;2023-02-22T00:22:58;17.38;;;11.93;;
73120;SDS011;61307;49.628;-1.624;2023-02-22T00:25:27;18.65;;;12.57;;
73120;SDS011;61307;49.628;-1.624;2023-02-22T00:27:54;20.05;;;13.35;;
73120;SDS011;61307;49.628;-1.624;2023-02-22T00:30:21;18.35;;;11.57;;
73120;SDS011;61307;49.628;-1.624;2023-02-22T00:32:53;17.50;;;11.68;;
73120;SDS011;61307;49.628;-1.624;2023-02-22T00:35:22;18.55;;;12.25;;
73120;SDS011;61307;49.628;-1.624;2023-02-22T00:37:51;19.25;;;12.73;;
73120;SDS011;61307;49.628;-1.624;2023-02-22T00:40:22;16.55;;;11.85;;
73120;SDS011;61307;49.628;-1.624;2023-02-22T00:42:51;16.90;;;11.75;;
73120;SDS011;61307;49.628;-1.624;2023-02-22T00:45:19;17.52;;;12.40;;
73120;SDS011;61307;49.628;-1.624;2023-02-22T00:47:48;17.35;;;12.43;;
73120;SDS011;61307;49.628;-1.624;2023-02-22T00:50:15;16.08;;;11.70;;
73120;SDS011;61307;49.628;-1.624;2023-02-22T00:52:44;19.02;;;12.98;;
73120;SDS011;61307;49.628;-1.624;2023-02-22T00:55:15;16.90;;;11.95;;
73120;SDS011;61307;49.628;-1.624;2023-02-22T00:57:44;15.68;;;11.40;;
73120;SDS011;61307;49.628;-1.624;2023-02-22T01:00:16;17.27;;;12.23;;
73120;SDS011;61307;49.628;-1.624;2023-02-22T01:02:45;17.45;;;11.88;;
73120;SDS011;61307;49.628;-1.624;2023-02-22T01:05:15;20.83;;;12.45;;
73120;SDS011;61307;49.628;-1.624;2023-02-22T01:07:45;16.77;;;11.35;;
73120;SDS011;61307;49.628;-1.624;2023-02-22T01:10:12;16.50;;;11.77;;
73120;SDS011;61307;49.628;-1.624;2023-02-22T01:12:40;16.98;;;11.93;;
73120;SDS011;61307;49.628;-1.624;2023-02-22T01:15:07;18.10;;;11.93;;
73120;SDS011;61307;49.628;-1.624;2023-02-22T01:17:38;19.25;;;12.43;;
73120;SDS011;61307;49.628;-1.624;2023-02-22T01:20:08;17.30;;;11.90;;
73120;SDS011;61307;49.628;-1.624;2023-02-22T01:22:37;15.25;;;11.50;;
73120;SDS011;61307;49.628;-1.624;2023-02-22T01:25:05;17.38;;;11.88;;
73120;SDS011;61307;49.628;-1.624;2023-02-22T01:27:33;17.40;;;12.52;;
73120;SDS011;61307;49.628;-1.624;2023-02-22T01:30:01;17.50;;;12.13;;
73120;SDS011;61307;49.628;-1.624;2023-02-22T01:32:33;17.42;;;11.63;;
73120;SDS011;61307;49.628;-1.624;2023-02-22T01:35:02;17.90;;;11.85;;
73120;SDS011;61307;49.628;-1.624;2023-02-22T01:37:32;16.88;;;11.60;;
73120;SDS011;61307;49.628;-1.624;2023-02-22T01:40:00;17.25;;;11.75;;
73120;SDS011;61307;49.628;-1.624;2023-02-22T01:42:28;17.02;;;11.90;;
73120;SDS011;61307;49.628;-1.624;2023-02-22T01:48:01;17.50;;;12.13;;
73120;SDS011;61307;49.628;-1.624;2023-02-22T01:50:32;16.83;;;12.38;;
73120;SDS011;61307;49.628;-1.624;2023-02-22T01:53:03;16.35;;;11.95;;
73120;SDS011;61307;49.628;-1.624;2023-02-22T01:55:31;17.25;;;12.07;;
73120;SDS011;61307;49.628;-1.624;2023-02-22T01:58:01;17.45;;;11.70;;
73120;SDS011;61307;49.628;-1.624;2023-02-22T02:00:29;15.57;;;11.25;;
73120;SDS011;61307;49.628;-1.624;2023-02-22T02:02:57;18.88;;;11.90;;
73120;SDS011;61307;49.628;-1.624;2023-02-22T02:05:38;16.60;;;12.05;;
73120;SDS011;61307;49.628;-1.624;2023-02-22T02:08:07;17.73;;;12.05;;
73120;SDS011;61307;49.628;-1.624;2023-02-22T02:10:40;19.13;;;12.80;;
73120;SDS011;61307;49.628;-1.624;2023-02-22T02:13:09;16.55;;;11.30;;
73120;SDS011;61307;49.628;-1.624;2023-02-22T02:15:36;16.05;;;11.52;;
73120;SDS011;61307;49.628;-1.624;2023-02-22T02:18:04;18.77;;;12.98;;
73120;SDS011;61307;49.628;-1.624;2023-02-22T02:20:35;16.63;;;11.63;;
73120;SDS011;61307;49.628;-1.624;2023-02-22T02:23:15;15.65;;;11.80;;
73120;SDS011;61307;49.628;-1.624;2023-02-22T02:32:13;15.32;;;10.93;;
73120;SDS011;61307;49.628;-1.624;2023-02-22T02:34:46;17.00;;;11.43;;
73120;SDS011;61307;49.628;-1.624;2023-02-22T02:37:20;17.40;;;11.60;;
73120;SDS011;61307;49.628;-1.624;2023-02-22T02:39:56;14.70;;;11.10;;
73120;SDS011;61307;49.628;-1.624;2023-02-22T02:42:31;15.40;;;10.20;;
73120;SDS011;61307;49.628;-1.624;2023-02-22T02:45:04;16.20;;;10.82;;
73120;SDS011;61307;49.628;-1.624;2023-02-22T02:47:37;18.45;;;11.18;;
73120;SDS011;61307;49.628;-1.624;2023-02-22T02:50:08;15.18;;;11.50;;
73120;SDS011;61307;49.628;-1.624;2023-02-22T02:52:39;14.98;;;10.70;;
73120;SDS011;61307;49.628;-1.624;2023-02-22T02:55:07;14.68;;;10.32;;
73120;SDS011;61307;49.628;-1.624;2023-02-22T02:57:36;13.38;;;9.95;;
73120;SDS011;61307;49.628;-1.624;2023-02-22T03:00:04;14.35;;;10.27;;
73120;SDS011;61307;49.628;-1.624;2023-02-22T03:02:49;14.23;;;9.88;;
73120;SDS011;61307;49.628;-1.624;2023-02-22T03:05:37;14.00;;;9.85;;
73120;SDS011;61307;49.628;-1.624;2023-02-22T03:08:19;14.98;;;9.85;;
73120;SDS011;61307;49.628;-1.624;2023-02-22T03:10:53;12.68;;;9.50;;
73120;SDS011;61307;49.628;-1.624;2023-02-22T03:13:38;13.63;;;9.18;;
73120;SDS011;61307;49.628;-1.624;2023-02-22T03:16:12;12.77;;;9.35;;
73120;SDS011;61307;49.628;-1.624;2023-02-22T03:18:47;12.18;;;8.80;;
73120;SDS011;61307;49.628;-1.624;2023-02-22T03:21:19;13.77;;;9.20;;
73120;SDS011;61307;49.628;-1.624;2023-02-22T03:23:51;14.43;;;10.10;;
73120;SDS011;61307;49.628;-1.624;2023-02-22T03:26:27;13.55;;;8.60;;
73120;SDS011;61307;49.628;-1.624;2023-02-22T03:28:59;12.23;;;8.75;;
73120;SDS011;61307;49.628;-1.624;2023-02-22T03:31:30;11.20;;;8.52;;
73120;SDS011;61307;49.628;-1.624;2023-02-22T03:34:05;14.52;;;8.90;;
73120;SDS011;61307;49.628;-1.624;2023-02-22T03:36:38;10.85;;;8.05;;
73120;SDS011;61307;49.628;-1.624;2023-02-22T03:39:11;12.10;;;8.65;;
73120;SDS011;61307;49.628;-1.624;2023-02-22T03:41:42;12.27;;;8.23;;
73120;SDS011;61307;49.628;-1.624;2023-02-22T03:44:17;12.57;;;8.70;;
73120;SDS011;61307;49.628;-1.624;2023-02-22T03:46:49;10.52;;;7.93;;
73120;SDS011;61307;49.628;-1.624;2023-02-22T03:49:24;11.27;;;8.90;;
73120;SDS011;61307;49.628;-1.624;2023-02-22T03:51:57;11.35;;;8.05;;
73120;SDS011;61307;49.628;-1.624;2023-02-22T03:54:25;10.35;;;8.13;;
73120;SDS011;61307;49.628;-1.624;2023-02-22T03:56:53;10.73;;;7.68;;
73120;SDS011;61307;49.628;-1.624;2023-02-22T03:59:23;10.80;;;7.63;;
73120;SDS011;61307;49.628;-1.624;2023-02-22T04:01:51;10.20;;;7.97;;
73120;SDS011;61307;49.628;-1.624;2023-02-22T04:04:19;9.18;;;7.25;;
73120;SDS011;61307;49.628;-1.624;2023-02-22T04:06:49;9.25;;;7.47;;
73120;SDS011;61307;49.628;-1.624;2023-02-22T04:09:17;10.30;;;7.72;;
73120;SDS011;61307;49.628;-1.624;2023-02-22T04:11:45;11.07;;;7.40;;
73120;SDS011;61307;49.628;-1.624;2023-02-22T04:14:12;11.60;;;7.57;;
73120;SDS011;61307;49.628;-1.624;2023-02-22T04:16:39;9.68;;;6.95;;
73120;SDS011;61307;49.628;-1.624;2023-02-22T04:19:06;8.77;;;6.75;;
73120;SDS011;61307;49.628;-1.624;2023-02-22T04:21:33;9.30;;;7.25;;
73120;SDS011;61307;49.628;-1.624;2023-02-22T04:24:02;8.95;;;6.90;;
73120;SDS011;61307;49.628;-1.624;2023-02-22T04:26:29;9.50;;;6.80;;
73120;SDS011;61307;49.628;-1.624;2023-02-22T04:28:56;10.88;;;6.88;;
73120;SDS011;61307;49.628;-1.624;2023-02-22T04:31:23;8.75;;;6.60;;
73120;SDS011;61307;49.628;-1.624;2023-02-22T04:33:50;9.48;;;6.72;;
73120;SDS011;61307;49.628;-1.624;2023-02-22T04:36:17;8.23;;;6.38;;
73120;SDS011;61307;49.628;-1.624;2023-02-22T04:38:45;7.63;;;5.90;;
73120;SDS011;61307;49.628;-1.624;2023-02-22T04:41:15;8.30;;;5.97;;
73120;SDS011;61307;49.628;-1.624;2023-02-22T04:43:43;8.20;;;6.00;;
73120;SDS011;61307;49.628;-1.624;2023-02-22T04:46:10;7.97;;;5.85;;
73120;SDS011;61307;49.628;-1.624;2023-02-22T04:48:38;7.28;;;5.85;;
73120;SDS011;61307;49.628;-1.624;2023-02-22T04:51:05;8.02;;;5.60;;
73120;SDS011;61307;49.628;-1.624;2023-02-22T04:53:32;9.45;;;6.22;;
73120;SDS011;61307;49.628;-1.624;2023-02-22T04:56:00;8.13;;;6.20;;
73120;SDS011;61307;49.628;-1.624;2023-02-22T04:58:28;10.15;;;5.80;;
73120;SDS011;61307;49.628;-1.624;2023-02-22T05:00:56;8.73;;;6.10;;
73120;SDS011;61307;49.628;-1.624;2023-02-22T05:03:23;7.13;;;5.60;;
73120;SDS011;61307;49.628;-1.624;2023-02-22T05:05:50;7.40;;;5.40;;
73120;SDS011;61307;49.628;-1.624;2023-02-22T05:08:18;7.30;;;5.65;;
73120;SDS011;61307;49.628;-1.624;2023-02-22T05:10:45;6.45;;;5.07;;
73120;SDS011;61307;49.628;-1.624;2023-02-22T05:13:13;7.25;;;5.32;;
73120;SDS011;61307;49.628;-1.624;2023-02-22T05:15:42;6.55;;;5.57;;
73120;SDS011;61307;49.628;-1.624;2023-02-22T05:18:09;8.18;;;5.50;;
73120;SDS011;61307;49.628;-1.624;2023-02-22T05:20:36;6.80;;;5.30;;
73120;SDS011;61307;49.628;-1.624;2023-02-22T05:23:03;6.43;;;4.97;;
73120;SDS011;61307;49.628;-1.624;2023-02-22T05:25:30;6.28;;;5.03;;
73120;SDS011;61307;49.628;-1.624;2023-02-22T05:27:59;8.38;;;5.10;;
73120;SDS011;61307;49.628;-1.624;2023-02-22T05:30:29;6.40;;;5.43;;
73120;SDS011;61307;49.628;-1.624;2023-02-22T05:32:58;6.63;;;5.32;;
73120;SDS011;61307;49.628;-1.624;2023-02-22T05:35:26;6.70;;;5.65;;
73120;SDS011;61307;49.628;-1.624;2023-02-22T05:37:54;5.85;;;4.90;;
73120;SDS011;61307;49.628;-1.624;2023-02-22T05:40:22;6.20;;;4.97;;
73120;SDS011;61307;49.628;-1.624;2023-02-22T05:42:51;6.15;;;4.90;;
73120;SDS011;61307;49.628;-1.624;2023-02-22T05:45:19;5.80;;;5.10;;
73120;SDS011;61307;49.628;-1.624;2023-02-22T05:47:48;6.28;;;4.70;;
73120;SDS011;61307;49.628;-1.624;2023-02-22T05:50:17;7.13;;;5.00;;
73120;SDS011;61307;49.628;-1.624;2023-02-22T05:52:46;6.28;;;5.07;;
73120;SDS011;61307;49.628;-1.624;2023-02-22T05:55:14;6.15;;;4.90;;
73120;SDS011;61307;49.628;-1.624;2023-02-22T05:57:43;5.63;;;4.78;;
73120;SDS011;61307;49.628;-1.624;2023-02-22T06:00:13;5.72;;;4.63;;
73120;SDS011;61307;49.628;-1.624;2023-02-22T06:02:42;5.55;;;4.72;;
73120;SDS011;61307;49.628;-1.624;2023-02-22T06:05:10;7.07;;;4.57;;
73120;SDS011;61307;49.628;-1.624;2023-02-22T06:07:39;5.88;;;4.78;;
73120;SDS011;61307;49.628;-1.624;2023-02-22T06:10:06;5.20;;;4.45;;
73120;SDS011;61307;49.628;-1.624;2023-02-22T06:12:33;5.82;;;4.57;;
73120;SDS011;61307;49.628;-1.624;2023-02-22T06:15:00;4.85;;;4.03;;
73120;SDS011;61307;49.628;-1.624;2023-02-22T06:17:27;7.50;;;4.68;;
73120;SDS011;61307;49.628;-1.624;2023-02-22T06:19:55;6.30;;;4.53;;
73120;SDS011;61307;49.628;-1.624;2023-02-22T06:22:22;5.28;;;4.38;;
73120;SDS011;61307;49.628;-1.624;2023-02-22T06:24:51;6.03;;;4.38;;
73120;SDS011;61307;49.628;-1.624;2023-02-22T06:27:18;4.68;;;3.90;;
73120;SDS011;61307;49.628;-1.624;2023-02-22T06:29:45;4.72;;;4.03;;
73120;SDS011;61307;49.628;-1.624;2023-02-22T06:32:14;4.90;;;4.15;;
73120;SDS011;61307;49.628;-1.624;2023-02-22T06:34:41;5.63;;;4.22;;
73120;SDS011;61307;49.628;-1.624;2023-02-22T06:37:08;4.90;;;3.97;;
73120;SDS011;61307;49.628;-1.624;2023-02-22T06:39:35;4.35;;;3.85;;
73120;SDS011;61307;49.628;-1.624;2023-02-22T06:42:04;4.82;;;3.95;;
73120;SDS011;61307;49.628;-1.624;2023-02-22T06:44:31;4.28;;;3.55;;
73120;SDS011;61307;49.628;-1.624;2023-02-22T06:46:58;4.43;;;3.60;;
73120;SDS011;61307;49.628;-1.624;2023-02-22T06:49:26;4.55;;;3.67;;
73120;SDS011;61307;49.628;-1.624;2023-02-22T06:51:53;4.88;;;3.88;;
73120;SDS011;61307;49.628;-1.624;2023-02-22T06:54:20;4.28;;;3.65;;
73120;SDS011;61307;49.628;-1.624;2023-02-22T06:56:47;4.60;;;3.80;;
73120;SDS011;61307;49.628;-1.624;2023-02-22T06:59:16;4.90;;;3.55;;
73120;SDS011;61307;49.628;-1.624;2023-02-22T07:01:43;4.40;;;3.33;;
73120;SDS011;61307;49.628;-1.624;2023-02-22T07:04:10;4.88;;;3.65;;
73120;SDS011;61307;49.628;-1.624;2023-02-22T07:06:37;3.75;;;3.10;;
73120;SDS011;61307;49.628;-1.624;2023-02-22T07:09:04;4.00;;;3.50;;
73120;SDS011;61307;49.628;-1.624;2023-02-22T07:11:31;3.95;;;3.03;;
73120;SDS011;61307;49.628;-1.624;2023-02-22T07:13:59;4.20;;;3.30;;
73120;SDS011;61307;49.628;-1.624;2023-02-22T07:16:27;4.15;;;3.28;;
73120;SDS011;61307;49.628;-1.624;2023-02-22T07:18:54;4.05;;;3.35;;
73120;SDS011;61307;49.628;-1.624;2023-02-22T07:21:21;3.75;;;3.05;;
73120;SDS011;61307;49.628;-1.624;2023-02-22T07:23:49;3.75;;;3.17;;
73120;SDS011;61307;49.628;-1.624;2023-02-22T07:26:17;3.45;;;3.08;;
73120;SDS011;61307;49.628;-1.624;2023-02-22T07:28:44;5.40;;;3.08;;
73120;SDS011;61307;49.628;-1.624;2023-02-22T07:31:12;4.82;;;3.45;;
73120;SDS011;61307;49.628;-1.624;2023-02-22T07:33:41;4.95;;;3.33;;
73120;SDS011;61307;49.628;-1.624;2023-02-22T07:36:08;4.15;;;3.08;;
73120;SDS011;61307;49.628;-1.624;2023-02-22T07:38:37;3.72;;;3.03;;
73120;SDS011;61307;49.628;-1.624;2023-02-22T07:41:04;4.65;;;3.85;;
73120;SDS011;61307;49.628;-1.624;2023-02-22T07:43:32;5.65;;;4.47;;
73120;SDS011;61307;49.628;-1.624;2023-02-22T07:45:59;5.57;;;4.03;;
73120;SDS011;61307;49.628;-1.624;2023-02-22T07:48:28;5.72;;;4.38;;
73120;SDS011;61307;49.628;-1.624;2023-02-22T07:50:57;4.55;;;3.90;;
73120;SDS011;61307;49.628;-1.624;2023-02-22T07:53:26;6.70;;;4.32;;
73120;SDS011;61307;49.628;-1.624;2023-02-22T07:55:54;6.05;;;4.20;;
73120;SDS011;61307;49.628;-1.624;2023-02-22T07:58:23;9.48;;;4.32;;
73120;SDS011;61307;49.628;-1.624;2023-02-22T08:00:51;7.57;;;4.65;;
73120;SDS011;61307;49.628;-1.624;2023-02-22T08:03:19;6.13;;;4.80;;
73120;SDS011;61307;49.628;-1.624;2023-02-22T08:05:49;5.75;;;4.20;;
73120;SDS011;61307;49.628;-1.624;2023-02-22T08:08:18;7.15;;;5.32;;
73120;SDS011;61307;49.628;-1.624;2023-02-22T08:10:46;8.63;;;4.70;;
73120;SDS011;61307;49.628;-1.624;2023-02-22T08:13:14;6.40;;;4.65;;
73120;SDS011;61307;49.628;-1.624;2023-02-22T08:15:42;6.85;;;4.28;;
73120;SDS011;61307;49.628;-1.624;2023-02-22T08:18:11;5.93;;;4.50;;
73120;SDS011;61307;49.628;-1.624;2023-02-22T08:20:40;6.72;;;4.70;;
73120;SDS011;61307;49.628;-1.624;2023-02-22T08:23:09;5.28;;;4.40;;
73120;SDS011;61307;49.628;-1.624;2023-02-22T08:25:39;4.88;;;4.13;;
73120;SDS011;61307;49.628;-1.624;2023-02-22T08:28:07;8.07;;;4.78;;
73120;SDS011;61307;49.628;-1.624;2023-02-22T08:30:36;6.22;;;4.57;;
73120;SDS011;61307;49.628;-1.624;2023-02-22T08:33:03;4.63;;;4.07;;
73120;SDS011;61307;49.628;-1.624;2023-02-22T08:35:31;5.05;;;4.05;;
73120;SDS011;61307;49.628;-1.624;2023-02-22T08:37:59;5.97;;;4.10;;
73120;SDS011;61307;49.628;-1.624;2023-02-22T08:40:28;4.35;;;3.83;;
73120;SDS011;61307;49.628;-1.624;2023-02-22T08:42:57;5.43;;;4.32;;
73120;SDS011;61307;49.628;-1.624;2023-02-22T08:45:25;5.65;;;3.70;;
73120;SDS011;61307;49.628;-1.624;2023-02-22T08:47:52;5.55;;;4.00;;
73120;SDS011;61307;49.628;-1.624;2023-02-22T08:50:21;4.80;;;4.07;;
73120;SDS011;61307;49.628;-1.624;2023-02-22T08:52:50;4.03;;;3.30;;
73120;SDS011;61307;49.628;-1.624;2023-02-22T08:55:18;7.55;;;4.10;;
73120;SDS011;61307;49.628;-1.624;2023-02-22T08:57:46;4.88;;;3.78;;
73120;SDS011;61307;49.628;-1.624;2023-02-22T09:00:16;4.25;;;3.47;;
73120;SDS011;61307;49.628;-1.624;2023-02-22T09:02:45;6.20;;;4.03;;
73120;SDS011;61307;49.628;-1.624;2023-02-22T09:05:12;4.93;;;3.83;;
73120;SDS011;61307;49.628;-1.624;2023-02-22T09:07:41;6.13;;;3.83;;
73120;SDS011;61307;49.628;-1.624;2023-02-22T09:10:10;6.45;;;3.72;;
73120;SDS011;61307;49.628;-1.624;2023-02-22T09:12:40;7.10;;;3.70;;
73120;SDS011;61307;49.628;-1.624;2023-02-22T09:15:07;10.15;;;3.65;;
73120;SDS011;61307;49.628;-1.624;2023-02-22T09:17:36;4.18;;;3.50;;
73120;SDS011;61307;49.628;-1.624;2023-02-22T09:20:05;5.65;;;3.58;;
73120;SDS011;61307;49.628;-1.624;2023-02-22T09:22:34;5.72;;;3.55;;
73120;SDS011;61307;49.628;-1.624;2023-02-22T09:25:01;8.63;;;3.35;;
73120;SDS011;61307;49.628;-1.624;2023-02-22T09:27:28;5.60;;;3.75;;
73120;SDS011;61307;49.628;-1.624;2023-02-22T09:29:56;4.68;;;3.38;;
73120;SDS011;61307;49.628;-1.624;2023-02-22T09:32:23;7.55;;;3.50;;
73120;SDS011;61307;49.628;-1.624;2023-02-22T09:34:53;5.60;;;3.78;;
73120;SDS011;61307;49.628;-1.624;2023-02-22T09:37:21;7.68;;;3.63;;
73120;SDS011;61307;49.628;-1.624;2023-02-22T09:39:48;4.53;;;3.38;;
73120;SDS011;61307;49.628;-1.624;2023-02-22T09:42:16;5.30;;;3.67;;
73120;SDS011;61307;49.628;-1.624;2023-02-22T09:44:54;5.90;;;3.63;;
73120;SDS011;61307;49.628;-1.624;2023-02-22T09:47:31;4.97;;;3.42;;
73120;SDS011;61307;49.628;-1.624;2023-02-22T09:50:05;4.70;;;3.35;;
73120;SDS011;61307;49.628;-1.624;2023-02-22T09:52:50;4.78;;;3.50;;
73120;SDS011;61307;49.628;-1.624;2023-02-22T09:55:27;7.80;;;3.58;;
73120;SDS011;61307;49.628;-1.624;2023-02-22T09:57:59;4.05;;;3.08;;
73120;SDS011;61307;49.628;-1.624;2023-02-22T10:00:29;3.70;;;3.30;;
73120;SDS011;61307;49.628;-1.624;2023-02-22T10:03:02;5.43;;;3.28;;
73120;SDS011;61307;49.628;-1.624;2023-02-22T10:05:46;7.63;;;3.47;;
73120;SDS011;61307;49.628;-1.624;2023-02-22T10:08:18;3.60;;;3.10;;
73120;SDS011;61307;49.628;-1.624;2023-02-22T10:10:46;5.78;;;3.50;;
73120;SDS011;61307;49.628;-1.624;2023-02-22T10:13:20;4.55;;;3.35;;
73120;SDS011;61307;49.628;-1.624;2023-02-22T10:15:54;4.47;;;3.30;;
73120;SDS011;61307;49.628;-1.624;2023-02-22T10:21:32;4.53;;;3.03;;
73120;SDS011;61307;49.628;-1.624;2023-02-22T10:24:09;5.22;;;2.78;;
73120;SDS011;61307;49.628;-1.624;2023-02-22T10:26:43;6.00;;;3.15;;
73120;SDS011;61307;49.628;-1.624;2023-02-22T10:29:13;6.07;;;3.05;;
73120;SDS011;61307;49.628;-1.624;2023-02-22T10:31:49;5.32;;;3.08;;
73120;SDS011;61307;49.628;-1.624;2023-02-22T10:34:23;4.05;;;2.50;;
73120;SDS011;61307;49.628;-1.624;2023-02-22T10:36:55;5.25;;;2.50;;
73120;SDS011;61307;49.628;-1.624;2023-02-22T10:39:26;4.80;;;3.28;;
73120;SDS011;61307;49.628;-1.624;2023-02-22T10:41:56;3.35;;;2.80;;
73120;SDS011;61307;49.628;-1.624;2023-02-22T10:44:30;6.68;;;3.10;;
73120;SDS011;61307;49.628;-1.624;2023-02-22T10:46:58;4.80;;;2.58;;
73120;SDS011;61307;49.628;-1.624;2023-02-22T10:49:28;3.05;;;2.72;;
73120;SDS011;61307;49.628;-1.624;2023-02-22T10:52:03;9.05;;;2.70;;
73120;SDS011;61307;49.628;-1.624;2023-02-22T10:54:39;5.82;;;2.67;;
73120;SDS011;61307;49.628;-1.624;2023-02-22T10:57:08;4.68;;;2.60;;
73120;SDS011;61307;49.628;-1.624;2023-02-22T10:59:38;4.93;;;2.95;;
73120;SDS011;61307;49.628;-1.624;2023-02-22T11:02:08;4.20;;;2.80;;
73120;SDS011;61307;49.628;-1.624;2023-02-22T11:04:45;6.78;;;2.60;;
73120;SDS011;61307;49.628;-1.624;2023-02-22T11:07:20;5.72;;;2.50;;
73120;SDS011;61307;49.628;-1.624;2023-02-22T11:09:50;4.25;;;3.10;;
73120;SDS011;61307;49.628;-1.624;2023-02-22T11:12:19;3.13;;;2.50;;
73120;SDS011;61307;49.628;-1.624;2023-02-22T11:14:51;4.05;;;2.45;;
73120;SDS011;61307;49.628;-1.624;2023-02-22T11:17:25;2.70;;;2.20;;
73120;SDS011;61307;49.628;-1.624;2023-02-22T11:20:04;6.30;;;2.72;;
73120;SDS011;61307;49.628;-1.624;2023-02-22T11:22:37;3.45;;;2.67;;
73120;SDS011;61307;49.628;-1.624;2023-02-22T11:25:06;5.00;;;3.05;;
73120;SDS011;61307;49.628;-1.624;2023-02-22T11:27:35;6.32;;;2.58;;
73120;SDS011;61307;49.628;-1.624;2023-02-22T11:30:10;4.13;;;2.67;;
73120;SDS011;61307;49.628;-1.624;2023-02-22T11:32:46;3.00;;;2.17;;
73120;SDS011;61307;49.628;-1.624;2023-02-22T11:35:16;3.08;;;1.65;;
73120;SDS011;61307;49.628;-1.624;2023-02-22T11:37:47;3.95;;;1.80;;
73120;SDS011;61307;49.628;-1.624;2023-02-22T11:40:15;2.92;;;1.77;;
73120;SDS011;61307;49.628;-1.624;2023-02-22T11:42:46;4.28;;;1.90;;
73120;SDS011;61307;49.628;-1.624;2023-02-22T11:45:16;3.30;;;1.63;;
73120;SDS011;61307;49.628;-1.624;2023-02-22T11:47:54;2.65;;;1.80;;
73120;SDS011;61307;49.628;-1.624;2023-02-22T11:50:29;2.40;;;1.70;;
73120;SDS011;61307;49.628;-1.624;2023-02-22T11:53:07;2.80;;;1.77;;
73120;SDS011;61307;49.628;-1.624;2023-02-22T11:55:48;1.80;;;1.30;;
73120;SDS011;61307;49.628;-1.624;2023-02-22T11:58:25;2.75;;;1.58;;
73120;SDS011;61307;49.628;-1.624;2023-02-22T12:01:03;2.95;;;1.67;;
73120;SDS011;61307;49.628;-1.624;2023-02-22T12:06:49;2.63;;;1.50;;
73120;SDS011;61307;49.628;-1.624;2023-02-22T12:09:25;3.70;;;1.50;;
73120;SDS011;61307;49.628;-1.624;2023-02-22T12:12:03;2.95;;;1.23;;
73120;SDS011;61307;49.628;-1.624;2023-02-22T12:14:43;1.88;;;1.40;;
73120;SDS011;61307;49.628;-1.624;2023-02-22T12:17:21;3.80;;;1.55;;
73120;SDS011;61307;49.628;-1.624;2023-02-22T12:20:00;2.67;;;1.80;;
73120;SDS011;61307;49.628;-1.624;2023-02-22T12:22:34;2.70;;;1.40;;
73120;SDS011;61307;49.628;-1.624;2023-02-22T12:25:12;2.38;;;1.33;;
73120;SDS011;61307;49.628;-1.624;2023-02-22T12:27:45;3.25;;;1.40;;
73120;SDS011;61307;49.628;-1.624;2023-02-22T12:30:17;2.85;;;1.10;;
73120;SDS011;61307;49.628;-1.624;2023-02-22T12:32:49;2.58;;;1.15;;
73120;SDS011;61307;49.628;-1.624;2023-02-22T12:35:20;2.17;;;1.27;;
73120;SDS011;61307;49.628;-1.624;2023-02-22T12:37:55;6.03;;;1.38;;
73120;SDS011;61307;49.628;-1.624;2023-02-22T12:40:32;2.88;;;1.23;;
73120;SDS011;61307;49.628;-1.624;2023-02-22T12:43:03;2.10;;;1.30;;
73120;SDS011;61307;49.628;-1.624;2023-02-22T12:45:37;3.17;;;1.55;;
73120;SDS011;61307;49.628;-1.624;2023-02-22T12:48:15;2.35;;;1.38;;
73120;SDS011;61307;49.628;-1.624;2023-02-22T12:50:51;2.95;;;1.70;;
73120;SDS011;61307;49.628;-1.624;2023-02-22T12:53:24;4.35;;;1.70;;
73120;SDS011;61307;49.628;-1.624;2023-02-22T12:55:59;3.88;;;1.80;;
73120;SDS011;61307;49.628;-1.624;2023-02-22T12:58:43;4.80;;;1.60;;
73120;SDS011;61307;49.628;-1.624;2023-02-22T13:01:17;4.53;;;1.83;;
73120;SDS011;61307;49.628;-1.624;2023-02-22T13:03:48;5.22;;;1.75;;
73120;SDS011;61307;49.628;-1.624;2023-02-22T13:06:23;7.80;;;2.28;;
73120;SDS011;61307;49.628;-1.624;2023-02-22T13:09:13;3.83;;;1.60;;
73120;SDS011;61307;49.628;-1.624;2023-02-22T13:11:56;4.13;;;1.88;;
73120;SDS011;61307;49.628;-1.624;2023-02-22T13:14:39;5.95;;;1.75;;
73120;SDS011;61307;49.628;-1.624;2023-02-22T13:17:14;5.30;;;1.98;;
73120;SDS011;61307;49.628;-1.624;2023-02-22T13:19:48;6.05;;;1.77;;
73120;SDS011;61307;49.628;-1.624;2023-02-22T13:22:25;4.15;;;1.67;;
73120;SDS011;61307;49.628;-1.624;2023-02-22T13:25:00;5.03;;;1.83;;
73120;SDS011;61307;49.628;-1.624;2023-02-22T13:27:36;3.03;;;1.70;;
73120;SDS011;61307;49.628;-1.624;2023-02-22T13:30:13;4.35;;;2.03;;
73120;SDS011;61307;49.628;-1.624;2023-02-22T13:32:50;13.80;;;2.30;;
73120;SDS011;61307;49.628;-1.624;2023-02-22T13:35:45;6.97;;;1.60;;
73120;SDS011;61307;49.628;-1.624;2023-02-22T13:41:54;3.63;;;1.70;;
73120;SDS011;61307;49.628;-1.624;2023-02-22T13:44:48;8.43;;;1.40;;
73120;SDS011;61307;49.628;-1.624;2023-02-22T13:47:59;7.47;;;1.95;;
73120;SDS011;61307;49.628;-1.624;2023-02-22T13:50:52;12.73;;;6.70;;
73120;SDS011;61307;49.628;-1.624;2023-02-22T13:53:31;77.43;;;69.78;;
73120;SDS011;61307;49.628;-1.624;2023-02-22T13:56:08;63.42;;;56.70;;
73120;SDS011;61307;49.628;-1.624;2023-02-22T14:01:37;117.50;;;105.68;;
73120;SDS011;61307;49.628;-1.624;2023-02-22T14:04:20;95.55;;;85.78;;
73120;SDS011;61307;49.628;-1.624;2023-02-22T14:06:59;99.03;;;88.82;;
73120;SDS011;61307;49.628;-1.624;2023-02-22T14:12:15;90.85;;;81.68;;
73120;SDS011;61307;49.628;-1.624;2023-02-22T14:15:16;160.73;;;116.97;;
73120;SDS011;61307;49.628;-1.624;2023-02-22T14:17:47;135.68;;;97.53;;
73120;SDS011;61307;49.628;-1.624;2023-02-22T14:20:25;109.35;;;78.40;;
73120;SDS011;61307;49.628;-1.624;2023-02-22T14:22:57;73.38;;;52.88;;
73120;SDS011;61307;49.628;-1.624;2023-02-22T14:25:39;66.13;;;45.70;;
73120;SDS011;61307;49.628;-1.624;2023-02-22T14:28:08;48.53;;;35.28;;
73120;SDS011;61307;49.628;-1.624;2023-02-22T14:31:08;37.60;;;27.52;;
73120;SDS011;61307;49.628;-1.624;2023-02-22T14:36:28;62.17;;;54.70;;
73120;SDS011;61307;49.628;-1.624;2023-02-22T14:39:05;73.57;;;62.45;;
73120;SDS011;61307;49.628;-1.624;2023-02-22T14:41:41;125.43;;;112.38;;
73120;SDS011;61307;49.628;-1.624;2023-02-22T14:44:14;130.95;;;117.28;;
73120;SDS011;61307;49.628;-1.624;2023-02-22T14:46:49;117.07;;;104.43;;
73120;SDS011;61307;49.628;-1.624;2023-02-22T14:49:21;182.23;;;163.20;;
73120;SDS011;61307;49.628;-1.624;2023-02-22T14:51:53;141.63;;;127.18;;
73120;SDS011;61307;49.628;-1.624;2023-02-22T14:54:24;244.77;;;186.13;;
73120;SDS011;61307;49.628;-1.624;2023-02-22T14:57:02;181.55;;;140.73;;
73120;SDS011;61307;49.628;-1.624;2023-02-22T14:59:46;159.02;;;128.35;;
73120;SDS011;61307;49.628;-1.624;2023-02-22T15:02:18;67.68;;;55.20;;
73120;SDS011;61307;49.628;-1.624;2023-02-22T15:04:51;45.70;;;34.65;;
73120;SDS011;61307;49.628;-1.624;2023-02-22T15:07:21;69.05;;;55.50;;
73120;SDS011;61307;49.628;-1.624;2023-02-22T15:09:56;45.55;;;37.13;;
73120;SDS011;61307;49.628;-1.624;2023-02-22T15:12:53;46.45;;;36.60;;
73120;SDS011;61307;49.628;-1.624;2023-02-22T15:15:35;32.42;;;26.60;;
73120;SDS011;61307;49.628;-1.624;2023-02-22T15:18:10;33.60;;;24.27;;